Time;durP1;ratioP1;P1;durP2;ratioP2;P2;SDS_P1;SDS_P2;PMS_P1;PMS_P2;Temp;Humidity;BMP_temperature;BMP_pressure;BME280_temperature;BME280_humidity;BME280_pressure;Samples;Min_cycle;Max_cycle;Signal;HPM_P1;HPM_P2
2022/10/06 00:00:53;;;;;;;11.23;8.27;;;9.90;99.90;9.30;100257;;;;571172;248;24139;-79
2022/10/06 00:03:21;;;;;;;14.10;8.23;;;10.00;99.90;9.30;100260;;;;570592;248;24153;-80
2022/10/06 00:05:46;;;;;;;18.87;13.10;;;10.00;99.90;9.30;100264;;;;565554;248;46369;-79
2022/10/06 00:08:17;;;;;;;14.07;10.10;;;10.00;99.90;9.30;100258;;;;570615;248;24087;-79
2022/10/06 00:10:45;;;;;;;12.97;8.07;;;9.90;99.90;9.30;100257;;;;578901;248;24124;-79
2022/10/06 00:13:09;;;;;;;10.53;7.70;;;10.10;99.90;9.30;100259;;;;570509;248;24105;-79
2022/10/06 00:15:38;;;;;;;14.27;8.03;;;10.00;99.90;9.40;100265;;;;570325;248;24127;-78
2022/10/06 00:18:07;;;;;;;10.73;8.10;;;10.10;99.90;9.40;100266;;;;571420;248;24093;-79
2022/10/06 00:20:36;;;;;;;14.47;8.63;;;10.00;99.90;9.40;100257;;;;571238;248;24087;-79
2022/10/06 00:23:07;;;;;;;16.63;9.47;;;10.00;99.90;9.30;100263;;;;571658;248;24097;-79
2022/10/06 00:25:32;;;;;;;13.23;8.67;;;10.00;99.90;9.30;100261;;;;571661;248;24217;-80
2022/10/06 00:28:04;;;;;;;11.40;8.33;;;10.00;99.90;9.30;100259;;;;580794;248;24112;-81
2022/10/06 00:30:32;;;;;;;14.63;8.80;;;10.00;99.90;9.30;100260;;;;571700;248;24139;-79
2022/10/06 00:33:00;;;;;;;17.73;12.10;;;10.00;99.90;9.30;100267;;;;566925;248;46271;-81
2022/10/06 00:35:25;;;;;;;10.43;8.67;;;10.00;99.90;9.20;100267;;;;571454;248;24121;-82
2022/10/06 00:37:53;;;;;;;11.93;8.07;;;9.90;99.90;9.20;100252;;;;571785;248;24140;-77
2022/10/06 00:40:24;;;;;;;13.37;7.83;;;9.90;99.90;9.20;100250;;;;572001;246;24126;-81
2022/10/06 00:43:00;;;;;;;11.43;7.70;;;9.90;99.90;9.20;100257;;;;574711;248;24124;-80
2022/10/06 00:45:43;;;;;;;12.33;8.13;;;9.90;99.90;9.20;100257;;;;580648;248;24129;-79
2022/10/06 00:48:21;;;;;;;10.37;8.10;;;9.90;99.90;9.20;100258;;;;570620;248;24097;-78
2022/10/06 00:50:50;;;;;;;10.00;7.73;;;9.90;99.90;9.10;100258;;;;578337;247;24138;-79
2022/10/06 00:53:21;;;;;;;11.20;8.27;;;9.80;99.90;9.10;100255;;;;569955;248;24088;-78
2022/10/06 00:55:50;;;;;;;12.17;7.97;;;9.80;99.90;9.10;100256;;;;569843;248;24086;-79
2022/10/06 00:58:15;;;;;;;12.77;8.70;;;9.80;99.90;9.10;100261;;;;569890;248;24115;-80
2022/10/06 01:00:46;;;;;;;12.13;8.77;;;9.80;99.90;9.10;100262;;;;573158;248;24104;-79
2022/10/06 01:03:17;;;;;;;12.73;8.60;;;9.80;99.90;9.00;100254;;;;573226;248;24105;-79
2022/10/06 01:05:48;;;;;;;17.27;8.70;;;9.70;99.90;9.00;100260;;;;576631;247;24098;-80
2022/10/06 01:08:16;;;;;;;11.47;8.83;;;9.60;99.90;8.90;100251;;;;570514;246;24104;-79
2022/10/06 01:10:45;;;;;;;11.27;8.47;;;9.60;99.90;8.90;100248;;;;571507;248;24107;-79
2022/10/06 01:13:12;;;;;;;13.27;8.23;;;9.60;99.90;8.90;100242;;;;570959;248;24147;-78
2022/10/06 01:15:40;;;;;;;17.73;9.80;;;9.60;99.90;8.90;100230;;;;579322;247;24101;-78
2022/10/06 01:18:12;;;;;;;15.50;9.60;;;9.60;99.90;8.90;100245;;;;573808;248;24161;-79
2022/10/06 01:20:42;;;;;;;12.67;8.50;;;9.60;99.90;8.90;100245;;;;571159;248;24120;-79
2022/10/06 01:23:10;;;;;;;13.10;8.80;;;9.60;99.90;8.90;100240;;;;579438;248;24175;-80
2022/10/06 01:25:42;;;;;;;14.73;9.77;;;9.50;99.90;8.80;100233;;;;574826;248;24086;-80
2022/10/06 01:28:10;;;;;;;13.73;9.30;;;9.50;99.90;8.80;100238;;;;570690;248;25143;-79
2022/10/06 01:30:51;;;;;;;14.10;9.60;;;9.50;99.90;8.70;100243;;;;570583;248;24165;-79
2022/10/06 01:33:21;;;;;;;13.43;9.90;;;9.40;99.90;8.70;100248;;;;570393;248;24134;-80
2022/10/06 01:35:46;;;;;;;15.13;9.20;;;9.40;99.90;8.70;100251;;;;578036;248;24112;-80
2022/10/06 01:38:14;;;;;;;15.53;9.03;;;9.30;99.90;8.60;100243;;;;575261;248;24126;-79
2022/10/06 01:40:45;;;;;;;14.70;9.80;;;9.30;99.90;8.60;100248;;;;572077;248;24095;-81
2022/10/06 01:43:13;;;;;;;16.17;9.73;;;9.30;99.90;8.60;100249;;;;572015;247;24138;-81
2022/10/06 01:45:38;;;;;;;13.23;9.47;;;9.30;99.90;8.60;100252;;;;571480;248;24126;-79
2022/10/06 01:48:06;;;;;;;11.17;8.93;;;9.30;99.90;8.60;100249;;;;570476;248;24097;-79
2022/10/06 01:50:33;;;;;;;17.03;8.63;;;9.20;99.90;8.50;100247;;;;573715;248;24101;-79
2022/10/06 01:53:03;;;;;;;14.73;10.07;;;9.20;99.90;8.50;100241;;;;570576;248;24077;-78
2022/10/06 01:55:31;;;;;;;12.43;9.63;;;9.20;99.90;8.60;100247;;;;570513;248;25113;-80
2022/10/06 01:57:59;;;;;;;13.07;9.77;;;9.20;99.90;8.60;100238;;;;579733;248;24127;-82
2022/10/06 02:00:27;;;;;;;13.00;8.83;;;9.20;99.90;8.60;100231;;;;571828;243;24090;-82
2022/10/06 02:02:55;;;;;;;14.83;9.43;;;9.20;99.90;8.50;100238;;;;571889;246;24165;-81
2022/10/06 02:05:23;;;;;;;15.40;8.50;;;9.20;99.90;8.50;100241;;;;571603;243;24105;-80
2022/10/06 02:07:50;;;;;;;13.37;9.10;;;9.20;99.90;8.50;100236;;;;570999;248;24213;-80
2022/10/06 02:10:18;;;;;;;12.13;8.70;;;9.20;99.90;8.50;100241;;;;571392;248;24082;-80
2022/10/06 02:12:49;;;;;;;12.60;8.97;;;9.20;99.90;8.50;100252;;;;571106;248;24130;-82
2022/10/06 02:15:17;;;;;;;11.47;9.50;;;9.20;99.90;8.50;100254;;;;574240;248;24070;-81
2022/10/06 02:17:45;;;;;;;12.73;8.73;;;9.20;99.90;8.50;100250;;;;571103;248;24102;-80
2022/10/06 02:20:13;;;;;;;11.70;9.93;;;9.20;99.90;8.50;100249;;;;572002;248;24047;-80
2022/10/06 02:22:43;;;;;;;11.57;8.70;;;9.20;99.90;8.50;100244;;;;573093;248;24133;-80
2022/10/06 02:25:08;;;;;;;18.53;9.23;;;9.20;99.90;8.50;100252;;;;576121;248;24130;-81
2022/10/06 02:27:36;;;;;;;14.07;9.10;;;9.20;99.90;8.40;100251;;;;581465;242;24072;-79
2022/10/06 02:30:04;;;;;;;15.63;9.73;;;9.10;99.90;8.40;100252;;;;571697;248;24082;-80
2022/10/06 02:32:33;;;;;;;14.40;10.73;;;9.10;99.90;8.40;100249;;;;568271;253;24129;-80
2022/10/06 02:35:03;;;;;;;14.93;10.00;;;9.10;99.90;8.40;100254;;;;571431;249;24190;-80
2022/10/06 02:37:32;;;;;;;14.03;9.27;;;9.10;99.90;8.40;100258;;;;571328;249;24096;-79
2022/10/06 02:39:56;;;;;;;12.27;9.10;;;9.10;99.90;8.30;100254;;;;570083;249;24087;-80
2022/10/06 02:42:28;;;;;;;13.00;7.57;;;9.00;99.90;8.40;100257;;;;579473;248;24088;-79
2022/10/06 02:44:53;;;;;;;11.43;8.73;;;9.00;99.90;8.40;100255;;;;570950;249;24134;-80
2022/10/06 02:47:23;;;;;;;10.67;8.20;;;9.00;99.90;8.30;100268;;;;571313;249;24197;-80
2022/10/06 02:49:51;;;;;;;11.80;8.57;;;9.00;99.90;8.30;100265;;;;570305;249;24101;-80
2022/10/06 02:52:16;;;;;;;13.23;9.97;;;9.00;99.90;8.30;100259;;;;570736;249;24068;-80
2022/10/06 02:54:45;;;;;;;11.67;8.87;;;9.00;99.90;8.30;100261;;;;571683;249;24112;-81
2022/10/06 02:57:16;;;;;;;11.93;8.23;;;9.00;99.90;8.20;100266;;;;571614;249;24074;-80
2022/10/06 02:59:41;;;;;;;14.70;9.80;;;8.90;99.90;8.30;100262;;;;570895;248;24213;-80
2022/10/06 03:02:09;;;;;;;11.80;9.10;;;9.00;99.90;8.30;100254;;;;571240;248;24085;-80
2022/10/06 03:04:37;;;;;;;13.20;9.43;;;9.00;99.90;8.30;100263;;;;579408;246;24091;-80
2022/10/06 03:07:05;;;;;;;12.40;10.20;;;9.00;99.90;8.30;100270;;;;579041;247;25140;-80
2022/10/06 03:09:33;;;;;;;19.83;10.83;;;9.00;99.90;8.40;100262;;;;570051;248;24088;-81
2022/10/06 03:12:02;;;;;;;14.63;9.07;;;9.10;99.90;8.60;100278;;;;570162;248;24142;-81
2022/10/06 03:14:33;;;;;;;19.07;9.90;;;9.20;99.90;8.60;100269;;;;570155;248;24096;-80
2022/10/06 03:17:01;;;;;;;11.97;9.17;;;9.30;99.90;8.60;100276;;;;573998;248;24109;-79
2022/10/06 03:19:26;;;;;;;12.00;9.20;;;9.30;99.90;8.60;100273;;;;570017;247;24086;-80
2022/10/06 03:21:57;;;;;;;13.70;8.87;;;9.30;99.90;8.60;100277;;;;570000;248;24086;-80
2022/10/06 03:24:22;;;;;;;13.37;9.20;;;9.30;99.90;8.60;100271;;;;570554;248;24193;-79
2022/10/06 03:26:50;;;;;;;12.63;8.90;;;9.30;99.90;8.60;100270;;;;570955;248;24075;-79
2022/10/06 03:29:17;;;;;;;12.80;8.63;;;9.20;99.90;8.50;100266;;;;571050;248;24078;-80
2022/10/06 03:31:45;;;;;;;12.70;9.40;;;9.20;99.90;8.50;100266;;;;571579;248;24132;-80
2022/10/06 03:34:16;;;;;;;14.77;9.40;;;9.20;99.90;8.50;100271;;;;572313;248;24093;-79
2022/10/06 03:36:45;;;;;;;13.03;8.13;;;9.20;99.90;8.50;100282;;;;571681;248;24196;-79
2022/10/06 03:39:12;;;;;;;11.07;8.93;;;9.20;99.90;8.50;100272;;;;575609;248;24093;-80
2022/10/06 03:41:37;;;;;;;14.03;8.73;;;9.20;99.90;8.50;100277;;;;571377;248;24133;-79
2022/10/06 03:44:10;;;;;;;19.17;9.67;;;9.20;99.90;8.60;100288;;;;571801;248;24091;-79
2022/10/06 03:46:34;;;;;;;11.13;8.73;;;9.30;99.90;8.70;100282;;;;580101;248;24125;-79
2022/10/06 03:49:02;;;;;;;11.40;9.07;;;9.40;99.90;8.90;100289;;;;571687;248;24134;-79
2022/10/06 03:51:32;;;;;;;9.87;8.23;;;9.50;99.90;9.10;100282;;;;560361;253;24080;-80
2022/10/06 03:54:00;;;;;;;12.07;8.90;;;9.70;99.90;9.20;100279;;;;572066;248;24180;-80
2022/10/06 03:56:29;;;;;;;17.70;8.93;;;10.00;99.90;9.40;100296;;;;572062;246;24102;-80
2022/10/06 03:59:00;;;;;;;13.30;8.40;;;10.00;99.90;9.50;100297;;;;580377;247;24157;-79
2022/10/06 04:01:33;;;;;;;13.40;9.17;;;10.10;99.90;9.60;100291;;;;574960;246;24154;-79
2022/10/06 04:04:04;;;;;;;10.90;8.37;;;10.30;99.90;9.80;100302;;;;571702;248;24054;-79
2022/10/06 04:06:32;;;;;;;9.80;7.77;;;10.50;99.90;9.90;100293;;;;569304;248;24122;-80
2022/10/06 04:09:00;;;;;;;8.13;6.43;;;10.50;99.90;10.00;100306;;;;571233;248;24084;-80
2022/10/06 04:11:32;;;;;;;9.37;7.47;;;10.70;99.90;10.20;100304;;;;569174;248;24106;-79
2022/10/06 04:14:00;;;;;;;16.52;11.80;;;11.00;99.90;10.40;100302;;;;563204;248;35382;-80
2022/10/06 04:16:35;;;;;;;9.50;8.50;;;11.00;99.90;10.50;100302;;;;569399;248;24108;-80
2022/10/06 04:19:03;;;;;;;10.67;7.47;;;11.20;99.90;10.70;100304;;;;580308;244;24172;-80
2022/10/06 04:21:31;;;;;;;13.43;7.40;;;11.30;99.90;10.80;100313;;;;580254;242;24168;-80
2022/10/06 04:23:59;;;;;;;9.50;6.50;;;11.50;99.90;11.00;100317;;;;558798;250;25272;-81
2022/10/06 04:26:30;;;;;;;9.63;6.47;;;11.60;99.90;11.10;100315;;;;571673;246;24060;-81
2022/10/06 04:28:55;;;;;;;8.70;6.80;;;11.70;99.90;11.20;100315;;;;580180;242;24115;-81
2022/10/06 04:31:26;;;;;;;16.00;7.13;;;11.80;99.90;11.30;100311;;;;569247;248;24143;-80
2022/10/06 04:33:54;;;;;;;9.53;6.60;;;12.00;99.90;11.40;100320;;;;580315;248;24094;-81
2022/10/06 04:36:22;;;;;;;7.67;6.87;;;12.00;99.90;11.50;100321;;;;571246;248;24133;-81
2022/10/06 04:38:50;;;;;;;8.67;7.43;;;12.10;99.90;11.50;100319;;;;579732;248;24098;-81
2022/10/06 04:41:21;;;;;;;16.83;7.73;;;12.20;99.90;11.60;100322;;;;579964;248;24152;-81
2022/10/06 04:43:46;;;;;;;10.33;6.13;;;12.30;99.90;11.70;100324;;;;571116;248;24098;-81
2022/10/06 04:46:17;;;;;;;8.43;7.03;;;12.40;99.90;11.70;100331;;;;572141;248;24077;-80
2022/10/06 04:48:42;;;;;;;10.13;6.83;;;12.40;99.90;11.80;100326;;;;580734;247;24085;-80
2022/10/06 04:51:12;;;;;;;9.60;8.60;;;12.50;99.90;11.80;100330;;;;565090;248;35316;-81
2022/10/06 04:53:43;;;;;;;9.17;6.73;;;12.50;99.90;11.90;100335;;;;581140;248;24077;-81
2022/10/06 04:56:08;;;;;;;7.60;5.97;;;12.60;99.90;11.90;100318;;;;569740;247;24129;-81
2022/10/06 04:58:40;;;;;;;6.57;5.90;;;12.60;99.90;12.00;100321;;;;580720;248;24055;-80
2022/10/06 05:01:04;;;;;;;8.17;5.53;;;12.70;99.90;12.00;100330;;;;568611;248;24084;-82
2022/10/06 05:03:32;;;;;;;7.20;6.50;;;12.70;99.90;12.00;100319;;;;569980;248;24102;-80
2022/10/06 05:06:03;;;;;;;9.27;6.13;;;12.80;99.90;12.10;100334;;;;568037;248;24079;-80
2022/10/06 05:08:30;;;;;;;8.20;5.27;;;12.80;99.90;12.10;100341;;;;578616;248;24092;-80
2022/10/06 05:11:01;;;;;;;8.60;5.57;;;12.80;99.90;12.10;100339;;;;567731;248;24100;-80
2022/10/06 05:13:30;;;;;;;7.10;5.20;;;12.80;99.90;12.00;100350;;;;570040;248;24173;-81
2022/10/06 05:16:00;;;;;;;6.23;5.63;;;12.80;99.90;12.00;100343;;;;570137;248;24107;-80
2022/10/06 05:18:28;;;;;;;6.77;5.53;;;12.70;99.90;12.00;100352;;;;569990;248;24104;-81
2022/10/06 05:21:11;;;;;;;6.37;5.37;;;12.70;99.90;12.00;100350;;;;568124;248;24138;-80
2022/10/06 05:23:39;;;;;;;8.37;5.63;;;12.70;99.90;12.00;100344;;;;570877;248;24102;-80
2022/10/06 05:26:08;;;;;;;6.83;5.37;;;12.70;99.90;12.00;100365;;;;578927;248;24133;-81
2022/10/06 05:28:36;;;;;;;5.67;4.73;;;12.70;99.90;12.00;100365;;;;570225;248;24079;-81
2022/10/06 05:31:13;;;;;;;5.10;4.60;;;12.70;99.90;12.00;100365;;;;567983;248;24100;-80
2022/10/06 05:33:44;;;;;;;5.53;4.90;;;12.70;99.90;12.00;100371;;;;578981;248;24080;-81
2022/10/06 05:36:14;;;;;;;6.73;4.80;;;12.70;99.90;12.00;100364;;;;570394;248;24078;-80
2022/10/06 05:38:42;;;;;;;6.30;4.90;;;12.70;99.90;12.00;100364;;;;578522;248;24088;-80
2022/10/06 05:41:10;;;;;;;5.03;4.53;;;12.70;99.90;12.10;100388;;;;566518;248;24126;-80
2022/10/06 05:43:38;;;;;;;7.23;4.10;;;12.70;99.90;12.10;100393;;;;570232;248;24090;-80
2022/10/06 05:46:06;;;;;;;7.03;5.20;;;12.80;99.90;12.10;100392;;;;579212;248;24083;-80
2022/10/06 05:48:34;;;;;;;5.23;4.17;;;12.80;99.90;12.20;100410;;;;579520;248;24130;-81
2022/10/06 05:51:02;;;;;;;5.77;5.20;;;12.90;99.90;12.30;100403;;;;564015;248;35260;-82
2022/10/06 05:53:30;;;;;;;7.00;4.13;;;12.90;99.90;12.30;100410;;;;579442;248;24140;-82
2022/10/06 05:56:13;;;;;;;8.50;4.57;;;13.00;99.90;12.40;100413;;;;571822;248;24083;-82
2022/10/06 05:58:40;;;;;;;4.47;4.07;;;13.00;99.90;12.40;100419;;;;571495;248;24109;-81
2022/10/06 06:01:23;;;;;;;7.13;4.70;;;13.10;99.90;12.50;100421;;;;571451;248;24081;-81
2022/10/06 06:03:51;;;;;;;4.13;3.73;;;13.20;99.90;12.60;100432;;;;580081;248;24099;-81
2022/10/06 06:06:22;;;;;;;5.10;3.70;;;13.30;99.90;12.70;100441;;;;568390;248;24076;-81
2022/10/06 06:08:59;;;;;;;7.73;3.83;;;13.40;99.90;12.90;100455;;;;571005;248;24095;-81
2022/10/06 06:11:30;;;;;;;4.67;3.70;;;13.60;99.90;13.70;100456;;;;580183;248;24086;-82
2022/10/06 06:13:58;;;;;;;4.63;3.67;;;14.10;99.90;14.20;100453;;;;571594;248;24141;-83
2022/10/06 06:16:29;;;;;;;3.93;3.47;;;14.80;99.90;14.60;100456;;;;571030;248;24079;-83
2022/10/06 06:18:54;;;;;;;4.20;2.87;;;15.20;99.90;14.90;100461;;;;574311;248;24149;-81
2022/10/06 06:21:24;;;;;;;4.33;3.07;;;15.50;99.90;15.20;100465;;;;574315;244;24149;-81
2022/10/06 06:23:53;;;;;;;6.37;3.00;;;15.80;99.90;15.50;100468;;;;570393;248;24095;-80
2022/10/06 06:26:27;;;;;;;5.53;3.20;;;16.40;99.90;15.90;100476;;;;570399;248;24077;-81
2022/10/06 06:29:01;;;;;;;3.57;2.77;;;17.10;99.90;16.50;100479;;;;579653;248;24112;-81
2022/10/06 06:31:28;;;;;;;3.17;2.60;;;17.00;99.90;17.20;100488;;;;570485;248;24080;-83
2022/10/06 06:33:52;;;;;;;3.47;2.20;;;17.70;99.90;17.30;100493;;;;578864;248;24086;-81
2022/10/06 06:36:26;;;;;;;2.40;2.20;;;17.90;99.90;17.10;100493;;;;570816;248;24107;-82
2022/10/06 06:38:54;;;;;;;3.17;2.65;;;17.80;99.90;16.90;100500;;;;565549;248;35205;-83
2022/10/06 06:41:27;;;;;;;3.73;2.87;;;17.70;99.90;16.80;100510;;;;579303;248;24076;-81
2022/10/06 06:43:58;;;;;;;2.83;2.63;;;17.40;99.90;16.70;100509;;;;579057;248;24114;-79
2022/10/06 06:46:24;;;;;;;5.67;2.50;;;17.40;99.90;16.80;100521;;;;570383;248;24091;-80
2022/10/06 06:48:54;;;;;;;2.57;2.37;;;17.30;99.90;17.50;100522;;;;573838;244;24145;-84
2022/10/06 06:51:21;;;;;;;2.43;1.83;;;17.80;99.90;18.60;100523;;;;566527;248;24124;-84
2022/10/06 06:53:47;;;;;;;3.30;2.10;;;18.80;99.90;18.90;100533;;;;570283;248;24075;-83
2022/10/06 06:56:15;;;;;;;2.50;2.30;;;19.30;99.90;18.90;100531;;;;567970;248;24130;-83
2022/10/06 06:58:46;;;;;;;2.97;2.77;;;19.50;99.90;18.50;100528;;;;567929;248;24078;-81
2022/10/06 07:01:14;;;;;;;2.70;2.20;;;19.30;99.90;18.10;100539;;;;570276;248;24067;-85
2022/10/06 07:03:45;;;;;;;3.33;2.27;;;18.90;99.90;17.70;100540;;;;578773;248;23118;-84
2022/10/06 07:06:13;;;;;;;3.73;2.43;;;18.50;99.90;17.40;100544;;;;578907;246;24083;-83
2022/10/06 07:08:38;;;;;;;5.07;2.33;;;18.20;99.90;17.70;100539;;;;570895;248;24114;-84
2022/10/06 07:11:13;;;;;;;2.43;2.20;;;19.00;99.90;18.90;100537;;;;571146;248;24162;-83
2022/10/06 07:13:41;;;;;;;2.60;2.40;;;18.90;99.90;20.70;100557;;;;568543;248;24105;-84
2022/10/06 07:27:41;;;;;;;2.33;2.13;;;26.70;99.60;27.00;100588;;;;568331;248;24082;-84
2022/10/06 07:30:24;;;;;;;2.90;2.50;;;27.40;96.20;27.00;100594;;;;579532;248;23086;-83
2022/10/06 07:32:52;;;;;;;4.17;2.27;;;27.50;93.80;28.10;100603;;;;579376;248;23090;-85
2022/10/06 07:35:20;;;;;;;4.65;2.28;;;28.30;92.10;29.60;100601;;;;574410;248;35199;-83
2022/10/06 07:37:48;;;;;;;5.93;2.37;;;29.50;87.10;30.50;100613;;;;570946;248;23082;-85
2022/10/06 07:40:16;;;;;;;3.65;2.00;;;30.70;81.00;29.30;100624;;;;579336;248;23118;-80
2022/10/06 07:42:53;;;;;;;3.30;2.07;;;30.30;77.40;27.20;100618;;;;579029;248;23090;-81
2022/10/06 07:45:45;;;;;;;5.40;2.23;;;28.90;77.60;25.30;100629;;;;567741;248;23101;-83
2022/10/06 07:48:19;;;;;;;4.20;2.27;;;27.10;81.80;23.90;100635;;;;578459;247;23137;-82
2022/10/06 07:50:47;;;;;;;1.90;1.80;;;25.50;86.80;23.20;100647;;;;570136;248;23113;-83
2022/10/06 07:53:18;;;;;;;2.60;1.67;;;24.30;90.60;22.50;100654;;;;548941;258;23185;-83
2022/10/06 07:55:44;;;;;;;2.37;2.07;;;23.50;92.20;21.80;100651;;;;569768;249;24083;-84
2022/10/06 07:58:17;;;;;;;1.90;1.80;;;23.20;94.40;23.20;100662;;;;573790;248;24133;-81
2022/10/06 08:00:48;;;;;;;1.53;1.30;;;25.20;91.70;25.60;100678;;;;568196;248;24106;-81
2022/10/06 08:03:16;;;;;;;8.00;1.03;;;25.20;91.60;26.90;100675;;;;579089;248;24103;-81
2022/10/06 08:05:44;;;;;;;3.60;1.50;;;26.80;81.60;27.40;100677;;;;579517;248;24131;-80
2022/10/06 08:08:13;;;;;;;2.43;1.00;;;27.60;76.80;28.20;100679;;;;570304;248;23139;-80
2022/10/06 08:10:40;;;;;;;1.80;1.67;;;28.40;71.80;28.70;100690;;;;568068;248;23097;-82
2022/10/06 08:13:12;;;;;;;1.80;1.27;;;28.90;69.80;29.00;100690;;;;567958;248;23089;-81
2022/10/06 08:15:39;;;;;;;0.87;0.87;;;29.30;67.80;29.50;100701;;;;570502;248;23116;-81
2022/10/06 08:18:04;;;;;;;1.90;1.48;;;29.80;64.60;30.20;100712;;;;565532;248;46062;-81
2022/10/06 08:20:31;;;;;;;1.30;1.00;;;30.50;63.40;31.40;100725;;;;568821;248;23082;-81
2022/10/06 08:22:59;;;;;;;3.60;0.82;;;31.60;60.70;32.40;100736;;;;568473;248;24119;-81
2022/10/06 08:25:27;;;;;;;4.12;1.33;;;32.80;56.90;32.70;100725;;;;568242;248;23128;-81
2022/10/06 08:27:56;;;;;;;6.87;0.80;;;33.40;53.90;32.60;100730;;;;568124;247;23106;-82
2022/10/06 08:30:26;;;;;;;3.53;1.02;;;33.60;53.20;32.80;100737;;;;571239;248;24087;-80
2022/10/06 08:32:53;;;;;;;2.95;0.70;;;33.50;53.10;32.60;100748;;;;569018;248;24120;-83
2022/10/06 08:35:21;;;;;;;3.70;0.90;;;33.50;52.90;30.30;100751;;;;568598;248;23089;-79
2022/10/06 08:37:49;;;;;;;2.83;1.02;;;32.10;53.40;28.00;100759;;;;567762;248;23144;-80
2022/10/06 08:40:16;;;;;;;4.82;1.23;;;30.00;55.70;26.30;100771;;;;567682;248;23092;-81
2022/10/06 08:42:44;;;;;;;6.27;1.17;;;28.20;58.80;25.70;100761;;;;567497;248;24142;-81
2022/10/06 08:45:23;;;;;;;0.97;0.63;;;27.00;61.50;26.10;100772;;;;578728;248;23157;-84
2022/10/06 08:48:01;;;;;;;4.03;0.90;;;26.80;63.30;27.30;100779;;;;578603;248;24138;-85
2022/10/06 08:50:31;;;;;;;9.87;1.50;;;28.70;60.20;28.50;100778;;;;567141;248;23123;-84
2022/10/06 08:53:00;;;;;;;5.13;0.87;;;28.70;60.10;29.90;100787;;;;578485;248;23143;-83
2022/10/06 08:55:52;;;;;;;4.37;1.00;;;30.10;57.10;31.40;100783;;;;578193;248;23156;-85
2022/10/06 08:58:44;;;;;;;3.40;1.23;;;31.50;54.40;32.70;100797;;;;570256;248;23101;-84
2022/10/06 09:01:15;;;;;;;2.53;1.30;;;33.10;52.40;33.20;100810;;;;569726;248;23097;-82
2022/10/06 09:03:45;;;;;;;11.68;1.40;;;34.00;50.20;32.70;100815;;;;569810;248;23105;-81
2022/10/06 09:06:41;;;;;;;2.45;1.05;;;33.90;49.40;32.10;100819;;;;578313;248;23173;-81
2022/10/06 09:09:24;;;;;;;7.72;1.15;;;33.60;50.30;32.80;100825;;;;569823;248;23136;-81
2022/10/06 09:12:10;;;;;;;1.17;0.90;;;33.60;50.20;33.20;100830;;;;563884;248;24097;-82
2022/10/06 09:14:44;;;;;;;2.85;1.12;;;34.10;49.60;32.80;100844;;;;578264;244;23224;-82
2022/10/06 09:17:12;;;;;;;6.00;1.30;;;33.90;49.30;31.30;100844;;;;577989;248;24172;-83
2022/10/06 09:19:46;;;;;;;5.37;1.00;;;32.90;49.80;30.40;100846;;;;578247;248;23113;-84
2022/10/06 09:22:19;;;;;;;3.97;1.10;;;31.90;51.10;29.30;100852;;;;578363;247;23124;-83
2022/10/06 09:24:50;;;;;;;1.75;1.10;;;30.90;51.70;28.00;100864;;;;570229;248;24183;-81
2022/10/06 09:27:20;;;;;;;3.40;1.10;;;29.60;53.80;26.60;100847;;;;569950;248;23094;-83
2022/10/06 09:29:48;;;;;;;4.67;1.37;;;28.10;55.50;25.40;100861;;;;578901;246;23142;-83
2022/10/06 09:32:16;;;;;;;4.27;1.00;;;26.80;57.30;24.80;100866;;;;569071;247;23116;-83
2022/10/06 09:34:50;;;;;;;5.40;0.97;;;26.00;59.20;24.10;100874;;;;571157;248;23096;-83
2022/10/06 09:37:19;;;;;;;5.87;1.27;;;25.30;60.30;23.90;100881;;;;570931;248;24101;-83
2022/10/06 09:39:50;;;;;;;7.03;1.53;;;24.90;61.00;23.40;100878;;;;574260;248;24076;-83
2022/10/06 09:42:18;;;;;;;2.93;1.20;;;24.40;62.30;23.40;100881;;;;568261;248;24115;-85
2022/10/06 09:44:57;;;;;;;4.17;1.60;;;24.20;63.40;23.90;100905;;;;579361;248;24084;-84
2022/10/06 09:47:35;;;;;;;3.03;1.27;;;24.20;62.70;23.10;100904;;;;579464;248;24095;-83
2022/10/06 09:50:14;;;;;;;7.73;1.27;;;24.20;62.70;22.30;100922;;;;570294;248;24085;-84
2022/10/06 09:52:43;;;;;;;2.83;0.73;;;23.50;64.60;21.50;100915;;;;579016;248;24129;-83
2022/10/06 09:55:13;;;;;;;4.20;1.23;;;22.60;66.40;21.40;100927;;;;577825;248;24108;-81
2022/10/06 09:57:51;;;;;;;2.40;1.10;;;21.80;68.30;20.80;100935;;;;570319;248;24193;-83
2022/10/06 10:00:28;;;;;;;6.30;1.20;;;21.80;68.20;19.70;100934;;;;570461;248;24121;-84
2022/10/06 10:03:01;;;;;;;3.47;1.00;;;20.90;70.20;19.10;100945;;;;569986;248;24133;-82
2022/10/06 10:05:29;;;;;;;4.80;1.20;;;20.10;73.70;19.00;100946;;;;568992;247;24170;-83
2022/10/06 10:08:13;;;;;;;4.33;1.23;;;19.90;76.60;19.30;100948;;;;570128;248;24079;-84
2022/10/06 10:10:41;;;;;;;1.90;1.20;;;19.80;76.50;19.60;100954;;;;569655;248;24181;-81
2022/10/06 10:13:21;;;;;;;5.33;1.30;;;20.10;76.50;19.60;100965;;;;567625;248;24123;-82
2022/10/06 10:15:55;;;;;;;3.53;1.20;;;20.20;75.80;19.50;100976;;;;570175;248;24178;-84
2022/10/06 10:18:25;;;;;;;4.43;1.40;;;20.20;75.50;19.40;100985;;;;578416;248;24130;-83
2022/10/06 10:21:03;;;;;;;4.37;1.40;;;20.20;75.90;19.20;100977;;;;569456;248;24089;-83
2022/10/06 10:23:34;;;;;;;2.23;1.30;;;20.10;76.80;19.10;100981;;;;569418;248;24106;-81
2022/10/06 10:26:16;;;;;;;4.20;1.30;;;20.30;78.00;19.40;100992;;;;578656;248;24082;-84
2022/10/06 10:28:54;;;;;;;6.13;1.20;;;20.30;77.90;19.50;100991;;;;569692;248;24088;-84
2022/10/06 10:31:40;;;;;;;7.23;1.27;;;20.30;77.10;19.40;100993;;;;564167;248;24085;-82
2022/10/06 10:34:22;;;;;;;2.93;1.10;;;20.20;78.30;19.30;100992;;;;570083;248;24088;-82
2022/10/06 10:37:03;;;;;;;9.43;1.23;;;20.10;78.20;19.10;100993;;;;569806;248;24119;-82
2022/10/06 10:39:42;;;;;;;8.27;0.97;;;19.90;76.90;19.10;101002;;;;570086;248;24083;-82
2022/10/06 10:42:21;;;;;;;9.13;0.67;;;19.80;77.70;19.00;100994;;;;569805;248;24086;-83
2022/10/06 10:44:49;;;;;;;4.23;0.83;;;19.70;77.80;18.70;100999;;;;570709;248;24118;-80
2022/10/06 10:47:17;;;;;;;2.33;0.60;;;19.40;78.40;18.30;101004;;;;579433;247;24090;-81
2022/10/06 10:49:45;;;;;;;5.00;1.30;;;19.10;78.30;17.90;101017;;;;579312;248;24085;-83
2022/10/06 10:52:16;;;;;;;9.27;1.23;;;18.60;79.60;17.60;101022;;;;579049;248;24113;-80
2022/10/06 10:55:05;;;;;;;4.80;0.93;;;18.30;81.20;17.40;101020;;;;567903;248;24076;-80
2022/10/06 10:57:35;;;;;;;1.70;0.73;;;18.10;82.70;17.10;101034;;;;570096;248;24099;-82
2022/10/06 11:00:03;;;;;;;5.10;1.20;;;17.80;83.60;16.90;101029;;;;568862;248;24099;-79
2022/10/06 11:02:34;;;;;;;3.67;1.23;;;17.30;84.30;16.70;101038;;;;578268;247;24106;-78
2022/10/06 11:05:03;;;;;;;5.67;1.30;;;17.30;84.30;16.60;101052;;;;568999;248;24149;-80
2022/10/06 11:07:37;;;;;;;2.60;1.20;;;17.20;85.50;16.60;101040;;;;578177;248;24073;-80
2022/10/06 11:10:16;;;;;;;1.70;0.73;;;17.10;86.40;16.60;101040;;;;578117;248;24091;-79
2022/10/06 11:12:54;;;;;;;5.60;1.73;;;17.20;86.80;16.80;101043;;;;567726;248;24094;-79
2022/10/06 11:16:01;;;;;;;3.47;1.10;;;17.30;88.00;17.00;101046;;;;578160;248;24094;-80
2022/10/06 11:18:56;;;;;;;3.93;1.27;;;17.50;88.20;17.40;101060;;;;576822;248;24094;-80
2022/10/06 11:21:26;;;;;;;5.73;0.93;;;17.80;88.60;17.70;101057;;;;561337;248;24125;-80
2022/10/06 11:24:06;;;;;;;6.17;1.03;;;18.20;87.60;17.80;101055;;;;578234;248;24112;-80
2022/10/06 11:26:47;;;;;;;7.83;1.57;;;18.40;87.70;17.80;101054;;;;577639;248;24134;-80
2022/10/06 11:29:14;;;;;;;2.63;1.07;;;18.40;87.70;17.80;101061;;;;569470;248;24132;-79
2022/10/06 11:32:20;;;;;;;6.43;1.40;;;18.20;83.50;17.60;101037;;;;577730;247;24091;-78
2022/10/06 11:34:48;;;;;;;4.37;1.30;;;18.20;83.40;17.10;101062;;;;567541;248;24137;-79
2022/10/06 11:37:23;;;;;;;9.20;1.90;;;17.80;84.10;16.90;101068;;;;565734;248;24149;-82
2022/10/06 11:40:32;;;;;;;4.47;0.93;;;17.60;85.20;16.70;101061;;;;568665;248;24084;-80